createdAt,value
2019-04-04T00:00:50.316Z,7.00
2019-04-04T00:03:21.229Z,7.00
2019-04-04T00:05:52.242Z,7.00
2019-04-04T00:08:22.719Z,6.90
2019-04-04T00:10:53.210Z,6.90
2019-04-04T00:13:23.706Z,6.90
2019-04-04T00:15:54.176Z,6.80
2019-04-04T00:18:25.511Z,6.80
2019-04-04T00:20:56.884Z,6.80
2019-04-04T00:23:27.884Z,6.80
2019-04-04T00:26:00.467Z,6.70
2019-04-04T00:28:30.934Z,6.70
2019-04-04T00:31:01.532Z,6.60
2019-04-04T00:33:31.958Z,6.60
2019-04-04T00:36:03.229Z,6.60
2019-04-04T00:38:33.739Z,6.60
2019-04-04T00:41:04.224Z,6.50
2019-04-04T00:43:34.671Z,6.50
2019-04-04T00:46:05.340Z,6.50
2019-04-04T00:48:37.439Z,6.50
2019-04-04T00:51:09.169Z,6.40
2019-04-04T00:53:43.580Z,6.40
2019-04-04T00:56:14.136Z,6.40
2019-04-04T00:58:44.863Z,6.40
2019-04-04T01:01:15.339Z,6.30
2019-04-04T01:03:45.818Z,6.30
2019-04-04T01:06:16.246Z,6.30
2019-04-04T01:08:46.746Z,6.30
2019-04-04T01:11:18.357Z,6.30
2019-04-04T01:13:49.648Z,6.30
2019-04-04T01:16:20.254Z,6.30
2019-04-04T01:18:50.746Z,6.30
2019-04-04T01:21:22.150Z,6.30
2019-04-04T01:23:53.324Z,6.30
2019-04-04T01:26:23.733Z,6.30
2019-04-04T01:28:54.235Z,6.30
2019-04-04T01:31:24.716Z,6.30
2019-04-04T01:33:55.196Z,6.30
2019-04-04T01:36:25.957Z,6.30
2019-04-04T01:38:58.148Z,6.30
2019-04-04T01:41:28.747Z,6.20
2019-04-04T01:44:04.978Z,6.20
2019-04-04T01:46:31.646Z,6.20
2019-04-04T01:49:02.144Z,6.20
2019-04-04T01:51:32.580Z,6.10
2019-04-04T01:54:03.092Z,6.10
2019-04-04T01:56:35.028Z,6.00
2019-04-04T01:59:06.020Z,6.00
2019-04-04T02:01:36.417Z,5.90
2019-04-04T02:04:07.017Z,5.90
2019-04-04T02:06:37.599Z,5.80
2019-04-04T02:09:09.075Z,5.80
2019-04-04T02:11:41.896Z,5.80
2019-04-04T02:14:12.489Z,5.90
2019-04-04T02:16:43.042Z,5.90
2019-04-04T02:19:13.469Z,6.00
2019-04-04T02:21:43.926Z,6.00
2019-04-04T02:24:14.363Z,6.00
2019-04-04T02:26:44.786Z,6.00
2019-04-04T02:29:15.285Z,6.10
2019-04-04T02:31:53.050Z,6.10
2019-04-04T02:34:21.938Z,6.10
2019-04-04T02:36:52.379Z,6.20
2019-04-04T02:39:23.107Z,6.20
2019-04-04T02:41:53.531Z,6.30
2019-04-04T02:44:23.952Z,6.30
2019-04-04T02:46:54.431Z,6.30
2019-04-04T02:49:27.936Z,6.30
2019-04-04T02:51:57.033Z,6.40
2019-04-04T02:54:27.600Z,6.40
2019-04-04T02:56:58.129Z,6.40
2019-04-04T02:59:28.813Z,6.40
2019-04-04T03:01:59.370Z,6.40
2019-04-04T03:04:31.537Z,6.40
2019-04-04T03:07:01.969Z,6.50
2019-04-04T03:09:32.364Z,6.50
2019-04-04T03:12:02.818Z,6.50
2019-04-04T03:14:36.266Z,6.60
2019-04-04T03:17:05.497Z,6.60
2019-04-04T03:19:35.941Z,6.60
2019-04-04T03:22:07.419Z,6.70
2019-04-04T03:24:40.356Z,6.70
2019-04-04T03:27:10.558Z,6.80
2019-04-04T03:29:41.019Z,6.80
2019-04-04T03:32:14.506Z,6.80
2019-04-04T03:34:49.782Z,6.90
2019-04-04T03:37:15.932Z,6.90
2019-04-04T03:39:46.373Z,7.00
2019-04-04T03:42:16.790Z,7.00
2019-04-04T03:44:47.266Z,7.00
2019-04-04T03:47:17.862Z,7.00
2019-04-04T03:49:48.335Z,7.10
2019-04-04T03:52:18.839Z,7.10
2019-04-04T03:54:49.252Z,7.10
2019-04-04T03:57:19.835Z,7.10
2019-04-04T03:59:50.360Z,7.10
2019-04-04T04:02:20.856Z,7.10
2019-04-04T04:04:51.282Z,7.10
2019-04-04T04:07:21.789Z,7.10
2019-04-04T04:09:52.239Z,7.10
2019-04-04T04:12:22.698Z,7.20
2019-04-04T04:14:54.924Z,7.20
2019-04-04T04:17:25.280Z,7.20
2019-04-04T04:19:55.718Z,7.20
2019-04-04T04:22:26.171Z,7.10
2019-04-04T04:24:56.621Z,7.20
2019-04-04T04:27:27.049Z,7.10
2019-04-04T04:30:00.163Z,7.10
2019-04-04T04:32:29.943Z,7.10
2019-04-04T04:35:00.394Z,7.10
2019-04-04T04:37:30.946Z,7.10
2019-04-04T04:40:01.384Z,7.10
2019-04-04T04:42:31.990Z,7.00
2019-04-04T04:45:02.470Z,7.00
2019-04-04T04:47:32.918Z,7.00
2019-04-04T04:50:03.368Z,6.90
2019-04-04T04:52:33.807Z,6.90
2019-04-04T04:55:04.270Z,6.80
2019-04-04T04:57:37.274Z,6.70
2019-04-04T05:00:08.863Z,6.60
2019-04-04T05:02:39.388Z,6.60
2019-04-04T05:05:10.369Z,6.50
2019-04-04T05:07:41.041Z,6.40
2019-04-04T05:10:14.792Z,6.40
2019-04-04T05:12:45.027Z,6.40
2019-04-04T05:15:15.561Z,6.40
2019-04-04T05:17:46.300Z,6.40
2019-04-04T05:20:18.735Z,6.50
2019-04-04T05:22:49.200Z,6.50
2019-04-04T05:25:19.736Z,6.60
2019-04-04T05:27:50.205Z,6.60
2019-04-04T05:30:20.708Z,6.60
2019-04-04T05:32:56.146Z,6.70
2019-04-04T05:35:24.303Z,6.80
2019-04-04T05:37:56.365Z,6.80
2019-04-04T05:40:30.500Z,6.90
2019-04-04T05:42:59.619Z,6.90
2019-04-04T05:45:30.202Z,6.90
2019-04-04T05:48:00.617Z,6.90
2019-04-04T05:50:31.240Z,6.90
2019-04-04T05:53:02.141Z,6.90
2019-04-04T05:55:33.809Z,6.90
2019-04-04T05:58:04.269Z,6.80
2019-04-04T06:00:35.784Z,6.80
2019-04-04T06:03:06.188Z,6.80
2019-04-04T06:05:36.650Z,6.80
2019-04-04T06:08:08.270Z,6.80
2019-04-04T06:10:39.294Z,6.70
2019-04-04T06:13:09.749Z,6.70
2019-04-04T06:15:40.802Z,6.70
2019-04-04T06:18:12.037Z,6.70
2019-04-04T06:20:42.640Z,6.70
2019-04-04T06:23:13.073Z,6.70
2019-04-04T06:25:43.534Z,6.70
2019-04-04T06:28:13.988Z,6.70
2019-04-04T06:30:44.540Z,6.80
2019-04-04T06:33:14.980Z,6.90
2019-04-04T06:35:47.863Z,7.00
2019-04-04T06:38:17.905Z,7.00
2019-04-04T06:40:48.430Z,7.10
2019-04-04T06:43:18.882Z,7.10
2019-04-04T06:45:49.429Z,7.10
2019-04-04T06:48:19.846Z,7.10
2019-04-04T06:50:50.326Z,7.20
2019-04-04T06:53:22.299Z,7.20
2019-04-04T06:55:52.926Z,7.20
2019-04-04T06:58:23.469Z,7.30
2019-04-04T07:00:53.925Z,7.30
2019-04-04T07:03:27.090Z,7.30
2019-04-04T07:05:56.604Z,7.40
2019-04-04T07:08:27.154Z,7.50
2019-04-04T07:11:02.314Z,7.50
2019-04-04T07:13:41.808Z,7.60
2019-04-04T07:16:07.720Z,7.70
2019-04-04T07:18:36.422Z,7.80
2019-04-04T07:21:07.073Z,7.90
2019-04-04T07:23:37.838Z,8.00
2019-04-04T07:26:14.606Z,8.00
2019-04-04T07:28:42.846Z,8.20
2019-04-04T07:31:15.847Z,8.30
2019-04-04T07:33:45.462Z,8.40
2019-04-04T07:36:15.899Z,8.60
2019-04-04T07:38:46.413Z,8.70
2019-04-04T07:41:16.831Z,8.90
2019-04-04T07:43:49.318Z,9.10
2019-04-04T07:46:19.753Z,9.30
2019-04-04T07:48:52.643Z,9.50
2019-04-04T07:51:23.072Z,9.70
2019-04-04T07:53:53.875Z,9.90
2019-04-04T07:56:24.575Z,10.00
2019-04-04T07:58:55.036Z,10.30
2019-04-04T08:01:25.450Z,10.40
2019-04-04T08:03:55.899Z,10.70
2019-04-04T08:06:26.406Z,10.80
2019-04-04T08:08:56.826Z,11.00
2019-04-04T08:11:27.085Z,11.10
2019-04-04T08:13:57.892Z,11.30
2019-04-04T08:16:28.847Z,11.50
2019-04-04T08:18:59.408Z,11.70
2019-04-04T08:21:32.202Z,11.90
2019-04-04T08:24:02.686Z,12.10
2019-04-04T08:26:33.095Z,12.30
2019-04-04T08:29:03.510Z,12.40
2019-04-04T08:31:35.097Z,12.60
2019-04-04T08:34:05.967Z,12.80
2019-04-04T08:36:36.422Z,13.00
2019-04-04T08:39:12.136Z,13.20
2019-04-04T08:41:43.366Z,13.30
2019-04-04T08:44:13.847Z,13.50
2019-04-04T08:46:44.317Z,13.60
2019-04-04T08:49:14.983Z,13.80
2019-04-04T08:51:45.807Z,14.00
2019-04-04T08:54:18.334Z,14.20
2019-04-04T08:56:48.790Z,14.40
2019-04-04T08:59:20.378Z,14.60
2019-04-04T09:01:50.876Z,14.70
2019-04-04T09:04:23.892Z,14.90
2019-04-04T09:06:53.580Z,15.10
2019-04-04T09:09:24.087Z,15.20
2019-04-04T09:11:54.533Z,15.30
2019-04-04T09:14:27.395Z,15.50
2019-04-04T09:17:00.153Z,15.60
2019-04-04T09:19:30.603Z,15.80
2019-04-04T09:22:01.051Z,15.80
2019-04-04T09:24:31.597Z,15.70
2019-04-04T09:27:03.530Z,15.60
2019-04-04T09:29:33.955Z,15.50
2019-04-04T09:32:04.389Z,15.40
2019-04-04T09:34:34.825Z,15.30
2019-04-04T09:37:08.552Z,15.20
2019-04-04T09:39:37.422Z,15.10
2019-04-04T09:42:07.917Z,15.00
2019-04-04T09:44:38.561Z,15.00
2019-04-04T09:47:09.060Z,15.00
2019-04-04T09:49:39.563Z,15.00
2019-04-04T09:52:10.173Z,15.00
2019-04-04T09:54:40.705Z,15.00
2019-04-04T09:57:11.370Z,15.00
2019-04-04T09:59:42.174Z,14.90
2019-04-04T10:02:12.800Z,14.90
2019-04-04T10:04:43.220Z,14.70
2019-04-04T10:07:13.666Z,14.60
2019-04-04T10:09:44.219Z,14.40
2019-04-04T10:12:14.678Z,14.30
2019-04-04T10:14:46.578Z,14.30
2019-04-04T10:17:17.002Z,14.30
2019-04-04T10:19:47.444Z,14.30
2019-04-04T10:22:17.900Z,14.40
2019-04-04T10:24:48.447Z,14.40
2019-04-04T10:27:18.923Z,14.50
2019-04-04T10:29:49.446Z,14.40
2019-04-04T10:32:20.010Z,14.40
2019-04-04T10:34:50.558Z,14.30
2019-04-04T10:37:21.011Z,14.30
2019-04-04T10:39:51.606Z,14.30
2019-04-04T10:42:22.067Z,14.20
2019-04-04T10:44:52.537Z,14.20
2019-04-04T10:47:22.976Z,14.20
2019-04-04T10:49:53.784Z,14.20
2019-04-04T10:52:24.277Z,14.30
2019-04-04T10:54:54.685Z,14.40
2019-04-04T10:57:25.129Z,14.60
2019-04-04T10:59:56.654Z,14.70
2019-04-04T11:02:27.075Z,14.90
2019-04-04T11:04:57.554Z,15.00
2019-04-04T11:07:27.978Z,15.10
2019-04-04T11:09:58.433Z,15.20
2019-04-04T11:12:28.901Z,15.20
2019-04-04T11:14:59.344Z,15.10
2019-04-04T11:17:29.931Z,15.00
2019-04-04T11:20:00.387Z,14.90
2019-04-04T11:22:30.906Z,14.80
2019-04-04T11:25:01.395Z,14.60
2019-04-04T11:27:31.876Z,14.60
2019-04-04T11:30:02.591Z,14.70
2019-04-04T11:32:35.164Z,14.80
2019-04-04T11:35:09.791Z,14.90
2019-04-04T11:37:40.311Z,15.00
2019-04-04T11:40:11.886Z,15.10
2019-04-04T11:42:42.519Z,15.20
2019-04-04T11:45:13.267Z,15.30
2019-04-04T11:47:43.687Z,15.50
2019-04-04T11:50:14.782Z,15.50
2019-04-04T11:52:48.977Z,15.40
2019-04-04T11:55:19.508Z,15.30
2019-04-04T11:57:49.960Z,15.20
2019-04-04T12:00:30.682Z,15.20
2019-04-04T12:03:01.149Z,15.30
2019-04-04T12:05:31.747Z,15.50
2019-04-04T12:08:02.188Z,15.70
2019-04-04T12:10:32.814Z,15.90
2019-04-04T12:13:03.270Z,16.10
2019-04-04T12:15:33.726Z,16.30
2019-04-04T12:18:04.204Z,16.50
2019-04-04T12:20:36.928Z,16.60
2019-04-04T12:23:07.399Z,16.70
2019-04-04T12:25:37.963Z,16.80
2019-04-04T12:28:08.439Z,17.00
2019-04-04T12:30:39.394Z,17.20
2019-04-04T12:33:09.988Z,17.40
2019-04-04T12:35:40.604Z,17.50
2019-04-04T12:38:11.642Z,17.70
2019-04-04T12:40:44.202Z,17.90
2019-04-04T12:43:14.678Z,18.00
2019-04-04T12:45:45.282Z,18.10
2019-04-04T12:48:15.735Z,18.20
2019-04-04T12:50:48.549Z,18.20
2019-04-04T12:53:19.276Z,18.20
2019-04-04T12:55:49.858Z,18.20
2019-04-04T12:58:22.022Z,18.30
2019-04-04T13:00:52.512Z,18.40
2019-04-04T13:03:22.975Z,18.30
2019-04-04T13:05:53.463Z,18.30
2019-04-04T13:08:23.914Z,18.40
2019-04-04T13:10:54.425Z,18.50
2019-04-04T13:13:24.877Z,18.30
2019-04-04T13:15:55.395Z,18.20
2019-04-04T13:18:25.828Z,18.10
2019-04-04T13:20:56.290Z,17.90
2019-04-04T13:23:28.092Z,17.90
2019-04-04T13:25:58.779Z,17.90
2019-04-04T13:28:29.927Z,17.90
2019-04-04T13:31:02.413Z,17.80
2019-04-04T13:33:32.855Z,17.50
2019-04-04T13:36:03.344Z,17.40
2019-04-04T13:38:33.984Z,17.60
2019-04-04T13:41:04.805Z,17.60
2019-04-04T13:43:35.264Z,17.60
2019-04-04T13:46:11.867Z,17.70
2019-04-04T13:48:43.520Z,17.40
2019-04-04T13:51:14.744Z,16.90
2019-04-04T13:53:45.167Z,16.40
2019-04-04T13:56:15.772Z,16.10
2019-04-04T13:58:47.590Z,16.00
2019-04-04T14:01:20.189Z,15.90
2019-04-04T14:03:51.801Z,15.80
2019-04-04T14:06:23.393Z,15.70
2019-04-04T14:08:54.255Z,15.60
2019-04-04T14:11:24.687Z,15.50
2019-04-04T14:13:58.621Z,15.50
2019-04-04T14:16:28.026Z,15.40
2019-04-04T14:18:59.565Z,15.50
2019-04-04T14:21:30.595Z,15.60
2019-04-04T14:24:12.419Z,15.60
2019-04-04T14:26:34.416Z,15.40
2019-04-04T14:29:05.199Z,14.80
2019-04-04T14:31:35.676Z,14.10
2019-04-04T14:34:11.320Z,13.60
2019-04-04T14:36:41.218Z,13.10
2019-04-04T14:39:12.907Z,12.60
2019-04-04T14:41:44.005Z,12.10
2019-04-04T14:44:15.689Z,11.70
2019-04-04T14:46:48.280Z,11.40
2019-04-04T14:49:19.074Z,11.10
2019-04-04T14:51:50.153Z,10.80
2019-04-04T14:54:21.094Z,10.60
2019-04-04T14:56:51.510Z,10.50
2019-04-04T14:59:24.087Z,10.40
2019-04-04T15:01:55.682Z,10.30
2019-04-04T15:04:26.623Z,10.20
2019-04-04T15:06:58.148Z,10.10
2019-04-04T15:09:29.532Z,10.10
2019-04-04T15:12:00.584Z,10.10
2019-04-04T15:14:31.275Z,10.10
2019-04-04T15:17:03.298Z,10.10
2019-04-04T15:19:33.737Z,10.20
2019-04-04T15:22:04.187Z,10.20
2019-04-04T15:24:34.641Z,10.10
2019-04-04T15:27:05.075Z,10.10
2019-04-04T15:29:37.821Z,10.00
2019-04-04T15:32:08.615Z,9.90
2019-04-04T15:34:40.090Z,9.90
2019-04-04T15:37:10.495Z,9.80
2019-04-04T15:39:41.071Z,9.70
2019-04-04T15:42:11.492Z,9.60
2019-04-04T15:44:43.992Z,9.60
2019-04-04T15:47:14.830Z,9.50
2019-04-04T15:49:45.243Z,9.50
2019-04-04T15:52:18.007Z,9.50
2019-04-04T15:54:51.552Z,9.50
2019-04-04T15:57:31.732Z,9.50
2019-04-04T16:00:03.021Z,9.50
2019-04-04T16:02:35.983Z,9.50
2019-04-04T16:05:07.230Z,9.50
2019-04-04T16:07:37.675Z,9.40
2019-04-04T16:10:11.791Z,9.30
2019-04-04T16:12:42.296Z,9.30
2019-04-04T16:15:13.202Z,9.20
2019-04-04T16:17:43.628Z,9.20
2019-04-04T16:20:14.864Z,9.10
2019-04-04T16:22:45.300Z,9.10
2019-04-04T16:25:16.460Z,9.10
2019-04-04T16:27:46.934Z,9.10
2019-04-04T16:30:20.142Z,9.00
2019-04-04T16:32:50.579Z,9.00
2019-04-04T16:35:22.341Z,8.90
2019-04-04T16:37:53.514Z,8.90
2019-04-04T16:40:24.159Z,8.90
2019-04-04T16:42:55.802Z,8.80
2019-04-04T16:45:28.282Z,8.80
2019-04-04T16:47:58.771Z,8.80
2019-04-04T16:50:32.500Z,8.70
2019-04-04T16:53:04.768Z,8.70
2019-04-04T16:55:36.783Z,8.60
2019-04-04T16:58:09.108Z,8.50
2019-04-04T17:00:40.126Z,8.50
2019-04-04T17:03:11.937Z,8.40
2019-04-04T17:05:42.459Z,8.40
2019-04-04T17:08:14.249Z,8.30
2019-04-04T17:10:44.804Z,8.20
2019-04-04T17:13:15.269Z,8.20
2019-04-04T17:15:45.811Z,8.20
2019-04-04T17:18:18.504Z,8.20
2019-04-04T17:20:49.493Z,8.20
2019-04-04T17:23:22.758Z,8.20
2019-04-04T17:25:54.821Z,8.20
2019-04-04T17:28:26.397Z,8.20
2019-04-04T17:30:57.123Z,8.20
2019-04-04T17:33:29.735Z,8.20
2019-04-04T17:36:00.640Z,8.20
2019-04-04T17:38:42.610Z,8.20
2019-04-04T17:41:15.472Z,8.10
2019-04-04T17:43:46.098Z,8.10
2019-04-04T17:46:17.103Z,8.10
2019-04-04T17:48:47.638Z,8.00
2019-04-04T17:51:18.414Z,8.00
2019-04-04T17:53:49.439Z,8.00
2019-04-04T17:56:21.221Z,7.90
2019-04-04T17:58:58.597Z,7.90
2019-04-04T18:01:29.078Z,7.80
2019-04-04T18:03:59.957Z,7.70
2019-04-04T18:06:30.462Z,7.70
2019-04-04T18:09:01.391Z,7.70
2019-04-04T18:11:32.428Z,7.70
2019-04-04T18:14:03.177Z,7.70
2019-04-04T18:16:34.030Z,7.70
2019-04-04T18:19:05.451Z,7.70
2019-04-04T18:21:35.943Z,7.60
2019-04-04T18:24:08.655Z,7.60
2019-04-04T18:26:39.298Z,7.60
2019-04-04T18:29:12.251Z,7.60
2019-04-04T18:31:43.835Z,7.60
2019-04-04T18:34:17.022Z,7.60
2019-04-04T18:36:47.687Z,7.60
2019-04-04T18:39:19.309Z,7.60
2019-04-04T18:41:49.967Z,7.60
2019-04-04T18:44:20.532Z,7.60
2019-04-04T18:46:52.334Z,7.60
2019-04-04T18:49:23.315Z,7.60
2019-04-04T18:51:55.797Z,7.50
2019-04-04T18:54:26.841Z,7.50
2019-04-04T18:57:00.084Z,7.40
2019-04-04T18:59:32.337Z,7.30
2019-04-04T19:02:06.884Z,7.30
2019-04-04T19:04:43.367Z,7.30
2019-04-04T19:07:38.721Z,7.20
2019-04-04T19:10:33.625Z,7.20
2019-04-04T19:13:07.531Z,7.20
2019-04-04T19:15:38.357Z,7.20
2019-04-04T19:18:09.529Z,7.10
2019-04-04T19:20:41.917Z,7.10
2019-04-04T19:23:13.919Z,7.10
2019-04-04T19:25:55.731Z,7.10
2019-04-04T19:28:29.476Z,7.10
2019-04-04T19:31:00.530Z,7.10
2019-04-04T19:33:40.368Z,7.10
2019-04-04T19:36:11.102Z,7.10
2019-04-04T19:39:03.513Z,7.00
2019-04-04T19:41:34.491Z,7.00
2019-04-04T19:44:05.383Z,7.00
2019-04-04T19:46:37.618Z,6.90
2019-04-04T19:49:08.579Z,6.90
2019-04-04T19:51:39.216Z,6.90
2019-04-04T19:54:09.967Z,6.80
2019-04-04T19:56:41.973Z,6.80
2019-04-04T19:59:15.004Z,6.80
2019-04-04T20:02:07.779Z,6.80
2019-04-04T20:04:41.243Z,6.80
2019-04-04T20:07:21.326Z,6.80
2019-04-04T20:10:05.335Z,6.70
2019-04-04T20:12:36.327Z,6.70
2019-04-04T20:15:09.975Z,6.70
2019-04-04T20:17:41.907Z,6.70
2019-04-04T20:20:12.956Z,6.70
2019-04-04T20:22:43.872Z,6.70
2019-04-04T20:25:16.881Z,6.70
2019-04-04T20:27:54.665Z,6.70
2019-04-04T20:30:36.019Z,6.70
2019-04-04T20:33:06.671Z,6.60
2019-04-04T20:35:37.913Z,6.60
2019-04-04T20:38:08.544Z,6.60
2019-04-04T20:40:41.378Z,6.60
2019-04-04T20:43:13.053Z,6.70
2019-04-04T20:45:43.695Z,6.70
2019-04-04T20:48:14.394Z,6.70
2019-04-04T20:50:45.126Z,6.60
2019-04-04T20:53:15.601Z,6.60
2019-04-04T20:55:47.506Z,6.70
2019-04-04T20:58:17.984Z,6.70
2019-04-04T21:00:48.808Z,6.70
2019-04-04T21:03:23.398Z,6.70
2019-04-04T21:05:54.338Z,6.70
2019-04-04T21:08:26.784Z,6.70
2019-04-04T21:10:57.242Z,6.80
2019-04-04T21:13:28.791Z,6.80
2019-04-04T21:16:02.540Z,6.80
2019-04-04T21:18:33.369Z,6.70
2019-04-04T21:21:03.824Z,6.70
2019-04-04T21:23:38.024Z,6.70
2019-04-04T21:26:08.474Z,6.60
2019-04-04T21:28:39.303Z,6.60
2019-04-04T21:31:12.355Z,6.60
2019-04-04T21:33:43.713Z,6.60
2019-04-04T21:36:14.173Z,6.60
2019-04-04T21:38:44.577Z,6.60
2019-04-04T21:41:15.916Z,6.70
2019-04-04T21:43:46.425Z,6.70
2019-04-04T21:46:16.890Z,6.60
2019-04-04T21:48:47.318Z,6.60
2019-04-04T21:51:17.735Z,6.60
2019-04-04T21:53:48.124Z,6.60
2019-04-04T21:56:20.366Z,6.60
2019-04-04T21:58:50.748Z,6.60
2019-04-04T22:01:24.430Z,6.60
2019-04-04T22:03:54.887Z,6.60
2019-04-04T22:06:25.342Z,6.60
2019-04-04T22:08:55.768Z,6.60
2019-04-04T22:11:26.263Z,6.60
2019-04-04T22:13:56.681Z,6.60
2019-04-04T22:16:27.151Z,6.60
2019-04-04T22:18:57.600Z,6.60
2019-04-04T22:21:28.169Z,6.60
2019-04-04T22:23:58.394Z,6.60
2019-04-04T22:26:28.841Z,6.60
2019-04-04T22:28:59.460Z,6.70
2019-04-04T22:31:30.198Z,6.60
2019-04-04T22:34:01.712Z,6.70
2019-04-04T22:36:33.421Z,6.70
2019-04-04T22:39:05.327Z,6.60
2019-04-04T22:41:35.798Z,6.60
2019-04-04T22:44:06.236Z,6.60
2019-04-04T22:46:36.661Z,6.60
2019-04-04T22:49:07.135Z,6.60
2019-04-04T22:51:37.874Z,6.60
2019-04-04T22:54:10.785Z,6.60
2019-04-04T22:56:40.781Z,6.50
2019-04-04T22:59:12.807Z,6.50
2019-04-04T23:01:45.883Z,6.50
2019-04-04T23:04:16.326Z,6.50
2019-04-04T23:06:46.754Z,6.50
2019-04-04T23:09:19.577Z,6.50
2019-04-04T23:11:51.771Z,6.50
2019-04-04T23:14:22.255Z,6.50
2019-04-04T23:16:52.657Z,6.50
2019-04-04T23:19:24.263Z,6.50
2019-04-04T23:21:54.667Z,6.50
2019-04-04T23:24:25.097Z,6.40
2019-04-04T23:26:55.517Z,6.50
2019-04-04T23:29:25.954Z,6.50
2019-04-04T23:31:58.262Z,6.50
2019-04-04T23:34:28.657Z,6.50
2019-04-04T23:36:59.255Z,6.40
2019-04-04T23:39:29.728Z,6.40
2019-04-04T23:42:00.185Z,6.30
2019-04-04T23:44:30.774Z,6.30
2019-04-04T23:47:01.543Z,6.30
2019-04-04T23:49:31.928Z,6.30
2019-04-04T23:52:02.383Z,6.30
2019-04-04T23:54:32.796Z,6.30
2019-04-04T23:57:05.289Z,6.30
2019-04-04T23:59:35.995Z,6.30
